Terminal Aerodrome Forecast
Issued by NWS

Home | Current Version | Previous Version | Text Only | Print | Product List | Glossary On
Versions: 1 2 3 4 5 6 7 8 9 10 11 12 13 14 15 16 17 18 19 20 21 22 23 24 25 26 27 28
379
FTUS43 KLSX 251131
TAFCPS
TAF
KCPS 251131Z 2512/2612 VRB02KT P6SM SCT250
     FM251400 01004KT P6SM BKN250
     FM252300 02006KT P6SM VCSH OVC060
     FM260300 02005KT P6SM OVC060=

USA.gov is the U.S. government's official web portal to all federal, state and local government web resources and services.